Saint-Marc-Des-Carrieres, Canada
Current Conditions -  °F | °C
As of 2:00 PM on Saturday 20 Dec 2014 (Local Time) from CYOY Reporting Station
Few Clouds Few Clouds  
Wind Chill: 21°   Ceiling: Unl
Heat Index: 21°   Visibility: 9mi
Dew Point: 14°   Wind: 3mph
Humidity: 74%   Direction: 160°SSE
Pressure: 30.3"   Gusts: NA
Location:  46.68°N, 72.03°W
Report Text: CYOY 201900Z AUTO 16003KT 100V210 9SM FEW014 M06/M10 A3030 RMKSLP278
Loading
Personal Weather Stations






























Interactive Weather Map New forecast layout! Learn more

10-Day Weather Forecast

Advertisements
Track Severe Weather on mobile